Time;durP1;ratioP1;P1;durP2;ratioP2;P2;SDS_P1;SDS_P2;PMS_P1;PMS_P2;Temp;Humidity;BMP_temperature;BMP_pressure;BME280_temperature;BME280_humidity;BME280_pressure;Samples;Min_cycle;Max_cycle;Signal;HPM_P1;HPM_P2
2022/09/11 00:01:33;;;;;;;2.2;1.2;;;;;;;;;;;;;
2022/09/11 00:03:59;;;;;;;1.6;1.3;;;;;;;;;;;;;
2022/09/11 00:06:24;;;;;;;4.9;1.6;;;;;;;;;;;;;
2022/09/11 00:08:49;;;;;;;3.6;1.2;;;;;;;;;;;;;
2022/09/11 00:11:16;;;;;;;2;1;;;;;;;;;;;;;
2022/09/11 00:13:40;;;;;;;1.9;0.9;;;;;;;;;;;;;
2022/09/11 00:16:06;;;;;;;2.4;1.2;;;;;;;;;;;;;
2022/09/11 00:18:30;;;;;;;0.9;0.8;;;;;;;;;;;;;
2022/09/11 00:20:56;;;;;;;2.2;0.9;;;;;;;;;;;;;
2022/09/11 00:23:21;;;;;;;0.8;0.8;;;;;;;;;;;;;
2022/09/11 00:25:46;;;;;;;1.1;1;;;;;;;;;;;;;
2022/09/11 00:28:12;;;;;;;0.9;0.9;;;;;;;;;;;;;
2022/09/11 00:30:36;;;;;;;1.9;0.8;;;;;;;;;;;;;
2022/09/11 00:33:02;;;;;;;2.4;1;;;;;;;;;;;;;
2022/09/11 00:35:28;;;;;;;1.2;0.8;;;;;;;;;;;;;
2022/09/11 00:37:53;;;;;;;1.2;1.1;;;;;;;;;;;;;
2022/09/11 00:40:18;;;;;;;2.3;1.4;;;;;;;;;;;;;
2022/09/11 00:42:44;;;;;;;2.7;1.2;;;;;;;;;;;;;
2022/09/11 00:45:09;;;;;;;1.3;1;;;;;;;;;;;;;
2022/09/11 00:47:36;;;;;;;1.5;1.2;;;;;;;;;;;;;
2022/09/11 00:50:00;;;;;;;2;1.2;;;;;;;;;;;;;
2022/09/11 00:52:28;;;;;;;1.7;0.6;;;;;;;;;;;;;
2022/09/11 00:54:59;;;;;;;3;1.2;;;;;;;;;;;;;
2022/09/11 00:57:24;;;;;;;2.8;1;;;;;;;;;;;;;
2022/09/11 00:59:50;;;;;;;2;1.1;;;;;;;;;;;;;
2022/09/11 01:02:15;;;;;;;1.2;1;;;;;;;;;;;;;
2022/09/11 01:04:40;;;;;;;0.8;0.8;;;;;;;;;;;;;
2022/09/11 01:07:05;;;;;;;1.7;0.7;;;;;;;;;;;;;
2022/09/11 01:09:31;;;;;;;2.3;0.9;;;;;;;;;;;;;
2022/09/11 01:11:56;;;;;;;1;0.9;;;;;;;;;;;;;
2022/09/11 01:14:23;;;;;;;1;1;;;;;;;;;;;;;
2022/09/11 01:16:49;;;;;;;0.7;0.7;;;;;;;;;;;;;
2022/09/11 01:19:14;;;;;;;1.1;0.6;;;;;;;;;;;;;
2022/09/11 01:21:39;;;;;;;0.7;0.7;;;;;;;;;;;;;
2022/09/11 01:24:05;;;;;;;1.2;1.1;;;;;;;;;;;;;
2022/09/11 01:26:33;;;;;;;1.6;1.2;;;;;;;;;;;;;
2022/09/11 01:28:56;;;;;;;2.1;1.5;;;;;;;;;;;;;
2022/09/11 01:31:20;;;;;;;2;1.2;;;;;;;;;;;;;
2022/09/11 01:33:48;;;;;;;1.4;1.3;;;;;;;;;;;;;
2022/09/11 01:36:13;;;;;;;2.7;1.2;;;;;;;;;;;;;
2022/09/11 01:38:38;;;;;;;1;0.9;;;;;;;;;;;;;
2022/09/11 01:41:06;;;;;;;1.6;1.1;;;;;;;;;;;;;
2022/09/11 01:43:29;;;;;;;2.4;1.4;;;;;;;;;;;;;
2022/09/11 01:45:56;;;;;;;1.3;1.2;;;;;;;;;;;;;
2022/09/11 01:48:21;;;;;;;2.2;1;;;;;;;;;;;;;
2022/09/11 01:50:47;;;;;;;2.6;0.8;;;;;;;;;;;;;
2022/09/11 01:53:12;;;;;;;3.1;1.1;;;;;;;;;;;;;
2022/09/11 01:55:37;;;;;;;1;0.8;;;;;;;;;;;;;
2022/09/11 01:58:02;;;;;;;1;0.7;;;;;;;;;;;;;
2022/09/11 02:00:30;;;;;;;0.9;0.8;;;;;;;;;;;;;
2022/09/11 02:03:00;;;;;;;1.1;0.9;;;;;;;;;;;;;
2022/09/11 02:05:25;;;;;;;1.2;0.9;;;;;;;;;;;;;
2022/09/11 02:07:50;;;;;;;1.5;0.8;;;;;;;;;;;;;
2022/09/11 02:10:16;;;;;;;1.3;0.9;;;;;;;;;;;;;
2022/09/11 02:12:42;;;;;;;0.7;0.6;;;;;;;;;;;;;
2022/09/11 02:15:12;;;;;;;1.8;0.7;;;;;;;;;;;;;
2022/09/11 02:17:36;;;;;;;1.8;0.9;;;;;;;;;;;;;
2022/09/11 02:20:01;;;;;;;1.1;0.6;;;;;;;;;;;;;
2022/09/11 02:22:26;;;;;;;1.4;0.7;;;;;;;;;;;;;
2022/09/11 02:24:52;;;;;;;1.2;0.8;;;;;;;;;;;;;
2022/09/11 02:27:17;;;;;;;1.6;0.9;;;;;;;;;;;;;
2022/09/11 02:29:43;;;;;;;2.2;1.1;;;;;;;;;;;;;
2022/09/11 02:32:09;;;;;;;1.5;1;;;;;;;;;;;;;
2022/09/11 02:34:35;;;;;;;1.8;0.8;;;;;;;;;;;;;
2022/09/11 02:37:00;;;;;;;1.9;0.6;;;;;;;;;;;;;
2022/09/11 02:39:25;;;;;;;1.6;0.9;;;;;;;;;;;;;
2022/09/11 02:41:51;;;;;;;1.4;0.7;;;;;;;;;;;;;
2022/09/11 02:44:19;;;;;;;0.7;0.6;;;;;;;;;;;;;
2022/09/11 02:46:44;;;;;;;0.9;0.5;;;;;;;;;;;;;
2022/09/11 02:49:08;;;;;;;1.5;1;;;;;;;;;;;;;
2022/09/11 02:51:33;;;;;;;1.1;1;;;;;;;;;;;;;
2022/09/11 02:54:00;;;;;;;1.8;0.9;;;;;;;;;;;;;
2022/09/11 02:56:24;;;;;;;1.9;0.8;;;;;;;;;;;;;
2022/09/11 02:58:49;;;;;;;0.6;0.6;;;;;;;;;;;;;
2022/09/11 03:01:14;;;;;;;0.7;0.6;;;;;;;;;;;;;
2022/09/11 03:03:40;;;;;;;1.2;0.7;;;;;;;;;;;;;
2022/09/11 03:06:06;;;;;;;1.2;0.7;;;;;;;;;;;;;
2022/09/11 03:08:32;;;;;;;1;0.7;;;;;;;;;;;;;
2022/09/11 03:10:56;;;;;;;1.1;0.7;;;;;;;;;;;;;
2022/09/11 03:13:21;;;;;;;1.6;0.7;;;;;;;;;;;;;
2022/09/11 03:15:49;;;;;;;0.8;0.7;;;;;;;;;;;;;
2022/09/11 03:18:15;;;;;;;1.4;0.8;;;;;;;;;;;;;
2022/09/11 03:20:40;;;;;;;0.8;0.8;;;;;;;;;;;;;
2022/09/11 03:23:09;;;;;;;0.7;0.7;;;;;;;;;;;;;
2022/09/11 03:25:30;;;;;;;1.5;0.7;;;;;;;;;;;;;
2022/09/11 03:27:55;;;;;;;1.4;0.6;;;;;;;;;;;;;
2022/09/11 03:30:20;;;;;;;1.4;0.6;;;;;;;;;;;;;
2022/09/11 03:32:46;;;;;;;2.1;1.2;;;;;;;;;;;;;
2022/09/11 03:35:10;;;;;;;2.1;1;;;;;;;;;;;;;
2022/09/11 03:37:37;;;;;;;1.9;1.1;;;;;;;;;;;;;
2022/09/11 03:40:02;;;;;;;1.8;1.1;;;;;;;;;;;;;
2022/09/11 03:42:31;;;;;;;1;0.7;;;;;;;;;;;;;
2022/09/11 03:44:55;;;;;;;2.1;0.9;;;;;;;;;;;;;
2022/09/11 03:47:21;;;;;;;1.2;1.1;;;;;;;;;;;;;
2022/09/11 03:49:47;;;;;;;1.9;1.4;;;;;;;;;;;;;
2022/09/11 03:52:13;;;;;;;2.5;1.4;;;;;;;;;;;;;
2022/09/11 03:54:38;;;;;;;2.6;1.3;;;;;;;;;;;;;
2022/09/11 03:57:04;;;;;;;1.9;0.9;;;;;;;;;;;;;
2022/09/11 03:59:29;;;;;;;1.1;0.6;;;;;;;;;;;;;
2022/09/11 04:02:35;;;;;;;1.2;0.8;;;;;;;13.98;89.75586;938.7751;;;;
2022/09/11 04:08:52;;;;;;;1.3;0.8;;;;;;;13.79;91.0625;938.8505;;;;
2022/09/11 04:11:17;;;;;;;2.3;1.1;;;;;;;13.73;91.64746;938.8651;;;;
2022/09/11 04:13:45;;;;;;;2.9;1.3;;;;;;;13.81;91.89453;938.8681;;;;
2022/09/11 04:16:11;;;;;;;3.5;1.6;;;;;;;13.88;91.79297;938.801;;;;
2022/09/11 04:18:36;;;;;;;2;1.2;;;;;;;13.93;90.75586;938.8602;;;;
2022/09/11 04:21:02;;;;;;;3.3;1.6;;;;;;;13.92;90.50195;938.8658;;;;
2022/09/11 04:23:27;;;;;;;2.1;1.3;;;;;;;13.89;90.92285;938.8635;;;;
2022/09/11 04:25:52;;;;;;;2.8;1.6;;;;;;;13.86;91.67383;938.8867;;;;
2022/09/11 04:28:21;;;;;;;2;1;;;;;;;13.7;91.52734;938.9275;;;;
2022/09/11 04:30:58;;;;;;;1.7;1;;;;;;;13.79;91.64941;938.9786;;;;
2022/09/11 04:33:25;;;;;;;3;1.7;;;;;;;13.78;91.34668;939.0234;;;;
2022/09/11 04:38:45;;;;;;;1.8;1.1;;;;;;;13.83;92.05957;939.0444;;;;
2022/09/11 04:41:14;;;;;;;3.3;1;;;;;;;13.86;91.97363;939.002;;;;
2022/09/11 04:44:45;;;;;;;3.1;1.1;;;;;;;13.9;91.5918;938.9338;;;;
2022/09/11 04:47:09;;;;;;;1.3;0.9;;;;;;;13.94;91.75098;938.9953;;;;
2022/09/11 05:02:35;;;;;;;2.5;1.3;;;;;;;13.56;94.67188;939.0435;;;;
2022/09/11 05:04:59;;;;;;;1.6;1.1;;;;;;;13.65;94.19336;939.1069;;;;
2022/09/11 05:07:28;;;;;;;1.6;1;;;;;;;13.6;94.27734;939.073;;;;
2022/09/11 05:09:53;;;;;;;0.8;0.8;;;;;;;13.7;94.1377;939.0948;;;;
2022/09/11 05:12:22;;;;;;;2.9;1.2;;;;;;;13.69;94.5498;939.1259;;;;
2022/09/11 05:14:47;;;;;;;1;0.9;;;;;;;13.47;94.65039;939.0603;;;;
2022/09/11 05:17:17;;;;;;;2.4;0.8;;;;;;;13.52;94.75195;939.1194;;;;
2022/09/11 05:19:43;;;;;;;1.7;0.9;;;;;;;13.63;94.67383;939.1013;;;;
2022/09/11 05:22:09;;;;;;;1.4;0.7;;;;;;;13.7;94.48047;939.2076;;;;
2022/09/11 05:24:34;;;;;;;1.4;0.7;;;;;;;13.67;94.64941;939.1908;;;;
2022/09/11 05:27:06;;;;;;;2.1;0.7;;;;;;;13.72;94.22266;939.1923;;;;
2022/09/11 05:29:34;;;;;;;1.4;0.8;;;;;;;13.62;94.21191;939.202;;;;
2022/09/11 05:34:27;;;;;;;0.9;0.7;;;;;;;13.68;94.7207;939.2388;;;;
2022/09/11 05:39:14;;;;;;;2.3;0.7;;;;;;;13.8;94.35449;939.2883;;;;
2022/09/11 05:41:44;;;;;;;0.9;0.8;;;;;;;13.79;94.28418;939.2899;;;;
2022/09/11 05:44:09;;;;;;;2.2;1;;;;;;;13.81;94.37012;939.2267;;;;
2022/09/11 05:46:38;;;;;;;1.1;0.7;;;;;;;13.79;93.83496;939.2419;;;;
2022/09/11 05:49:03;;;;;;;1.2;0.8;;;;;;;13.76;93.7832;939.2964;;;;
2022/09/11 05:52:33;;;;;;;1.6;0.9;;;;;;;13.69;93.80273;939.2892;;;;
2022/09/11 05:54:57;;;;;;;1.3;0.7;;;;;;;13.66;94.21094;939.3173;;;;
2022/09/11 05:57:27;;;;;;;1.5;1.1;;;;;;;13.72;94.85449;939.3133;;;;
2022/09/11 05:59:53;;;;;;;1.7;0.9;;;;;;;13.76;94.80469;939.3387;;;;
2022/09/11 06:02:23;;;;;;;2.6;1.6;;;;;;;13.75;94.2373;939.33;;;;
2022/09/11 06:04:51;;;;;;;2.3;1.4;;;;;;;13.81;93.89648;939.3547;;;;
2022/09/11 06:07:17;;;;;;;1.5;1.1;;;;;;;13.85;93.65137;939.3758;;;;
2022/09/11 06:09:45;;;;;;;3.3;1.2;;;;;;;13.98;93.28711;939.4108;;;;
2022/09/11 06:12:11;;;;;;;2.7;1.4;;;;;;;13.99;93.56738;939.454;;;;
2022/09/11 06:14:38;;;;;;;3.9;1.8;;;;;;;14.05;93.08398;939.3878;;;;
2022/09/11 06:17:05;;;;;;;2.7;1.8;;;;;;;14.04;93.25684;939.4542;;;;
2022/09/11 06:19:32;;;;;;;1.5;1.2;;;;;;;13.95;93.95117;939.4966;;;;
2022/09/11 06:21:57;;;;;;;2.3;1.2;;;;;;;14.07;92.90527;939.563;;;;
2022/09/11 06:24:25;;;;;;;3;1.5;;;;;;;14.24;93.19336;939.5076;;;;
2022/09/11 06:26:50;;;;;;;3;1.7;;;;;;;14.23;93.15723;939.4901;;;;
2022/09/11 06:29:16;;;;;;;1.7;1.3;;;;;;;14.22;93.51172;939.5358;;;;
2022/09/11 06:31:42;;;;;;;3.2;1.2;;;;;;;14.24;93.50391;939.5622;;;;
2022/09/11 06:34:12;;;;;;;2.3;1.2;;;;;;;14.15;93.9248;939.5341;;;;
2022/09/11 06:36:43;;;;;;;3.4;1.2;;;;;;;14.35;93.5293;939.6418;;;;
2022/09/11 06:39:13;;;;;;;2.9;1.3;;;;;;;14.48;92.6582;939.6486;;;;
2022/09/11 06:41:38;;;;;;;1.2;0.9;;;;;;;14.38;92.70605;939.6066;;;;
2022/09/11 06:44:08;;;;;;;1;1;;;;;;;14.14;94.24512;939.6373;;;;
2022/09/11 06:46:39;;;;;;;1.4;0.9;;;;;;;14.25;94.56738;939.6646;;;;
2022/09/11 06:49:09;;;;;;;1;0.8;;;;;;;14.32;93.0166;939.7469;;;;
2022/09/11 06:51:40;;;;;;;1.1;0.7;;;;;;;14.21;92.6123;939.7061;;;;
2022/09/11 06:54:04;;;;;;;1.2;0.9;;;;;;;14.1;93.72852;939.7031;;;;
2022/09/11 06:56:31;;;;;;;0.7;0.7;;;;;;;13.89;95.52344;939.7551;;;;
2022/09/11 06:58:57;;;;;;;1.8;1.1;;;;;;;13.83;96.4082;939.8409;;;;
2022/09/11 07:01:23;;;;;;;2;0.9;;;;;;;14.07;95.59668;939.8922;;;;
2022/09/11 07:03:48;;;;;;;0.7;0.7;;;;;;;14.23;94.2627;939.9299;;;;
2022/09/11 07:11:52;;;;;;;0.9;0.8;;;;;;;14.07;93.9873;939.9955;;;;
2022/09/11 07:14:20;;;;;;;0.9;0.7;;;;;;;14;93.0166;939.992;;;;
2022/09/11 07:16:42;;;;;;;0.9;0.8;;;;;;;13.8;94.79004;940.0967;;;;
2022/09/11 07:19:10;;;;;;;1.3;0.7;;;;;;;14.01;94.10059;940.1145;;;;
2022/09/11 07:21:36;;;;;;;2.7;1;;;;;;;14.17;93.77832;940.1819;;;;
2022/09/11 07:24:02;;;;;;;0.6;0.6;;;;;;;14.29;92.81348;940.2597;;;;
2022/09/11 07:26:26;;;;;;;1.2;1;;;;;;;14.36;92.58691;940.3164;;;;
2022/09/11 07:29:35;;;;;;;1.3;0.9;;;;;;;14.41;91.74609;940.2834;;;;
2022/09/11 07:32:03;;;;;;;2.4;0.9;;;;;;;14.54;91.59766;940.3719;;;;
2022/09/11 07:34:28;;;;;;;1.2;1.1;;;;;;;14.59;91.37891;940.4063;;;;
2022/09/11 07:36:54;;;;;;;1.5;0.9;;;;;;;14.48;91.30957;940.3256;;;;
2022/09/11 07:39:26;;;;;;;0.8;0.8;;;;;;;14.43;90.49414;940.392;;;;
2022/09/11 07:41:57;;;;;;;2.2;1.1;;;;;;;14.4;91.03906;940.3981;;;;
2022/09/11 07:44:26;;;;;;;1.4;1.1;;;;;;;14.17;94.2627;940.467;;;;
2022/09/11 07:46:52;;;;;;;4.6;1.9;;;;;;;14.33;94.07617;940.552;;;;
2022/09/11 07:49:16;;;;;;;5.6;2.3;;;;;;;14.47;93.80859;940.5541;;;;
2022/09/11 07:51:43;;;;;;;3.3;1.8;;;;;;;14.56;93.83887;940.5634;;;;
2022/09/11 07:54:08;;;;;;;4.9;2.1;;;;;;;14.43;93.71973;940.5257;;;;
2022/09/11 07:56:35;;;;;;;6.6;3.1;;;;;;;14.24;94.6582;940.5168;;;;
2022/09/11 07:59:00;;;;;;;5.1;2.8;;;;;;;14.38;95.05566;940.5344;;;;
2022/09/11 08:01:28;;;;;;;4.3;2.4;;;;;;;14.5;94.10449;940.5636;;;;
2022/09/11 08:03:53;;;;;;;3.9;2.3;;;;;;;14.68;93.71484;940.6044;;;;
2022/09/11 08:06:22;;;;;;;2.3;1.7;;;;;;;14.84;93.35742;940.5945;;;;
2022/09/11 08:08:47;;;;;;;1.9;1.4;;;;;;;14.95;92.25;940.6967;;;;
2022/09/11 08:11:14;;;;;;;1.9;1.3;;;;;;;15.07;91.6748;940.7736;;;;
2022/09/11 08:13:40;;;;;;;1.9;1;;;;;;;14.72;90.11621;940.7156;;;;
2022/09/11 08:16:09;;;;;;;1.6;1.4;;;;;;;14.78;91.39746;940.7459;;;;
2022/09/11 08:18:34;;;;;;;2.2;1.2;;;;;;;14.71;91.01367;940.7573;;;;
2022/09/11 08:21:01;;;;;;;2;1.3;;;;;;;15;92.16895;940.7679;;;;
2022/09/11 08:23:25;;;;;;;1;0.9;;;;;;;15.06;90.86719;940.7464;;;;
2022/09/11 08:25:53;;;;;;;1.1;1;;;;;;;15.23;90.66895;940.7419;;;;
2022/09/11 08:28:18;;;;;;;0.9;0.8;;;;;;;15.2;89.6123;940.7852;;;;
2022/09/11 08:30:45;;;;;;;2.5;0.9;;;;;;;15.3;89.87695;940.8074;;;;
2022/09/11 08:33:11;;;;;;;1.7;0.7;;;;;;;15.5;88.35938;940.8396;;;;
2022/09/11 08:35:39;;;;;;;0.6;0.6;;;;;;;15.31;84.90527;940.874;;;;
2022/09/11 08:38:04;;;;;;;1;0.8;;;;;;;14.99;87.34375;940.845;;;;
2022/09/11 08:40:36;;;;;;;1.3;0.9;;;;;;;15.29;88.97461;940.8083;;;;
2022/09/11 08:43:03;;;;;;;1.2;0.9;;;;;;;15.36;88.49121;940.7952;;;;
2022/09/11 08:45:32;;;;;;;1.1;0.8;;;;;;;15.63;87.19434;940.7352;;;;
2022/09/11 08:48:03;;;;;;;1.4;0.8;;;;;;;15.96;86.68359;940.8497;;;;
2022/09/11 08:50:28;;;;;;;2.2;1;;;;;;;16.15;85.94629;940.8381;;;;
2022/09/11 08:52:55;;;;;;;1.1;0.8;;;;;;;15.96;83.63086;940.9019;;;;
2022/09/11 08:55:19;;;;;;;0.8;0.8;;;;;;;16.02;86.54395;940.9978;;;;
2022/09/11 08:57:49;;;;;;;2;1;;;;;;;15.97;87.69043;940.9765;;;;
2022/09/11 09:00:16;;;;;;;1.9;0.8;;;;;;;15.93;85.46387;940.9608;;;;
2022/09/11 09:02:41;;;;;;;1;0.7;;;;;;;15.72;87.04102;940.9963;;;;
2022/09/11 09:05:14;;;;;;;3.6;0.9;;;;;;;15.78;87.87207;941.0393;;;;
2022/09/11 09:07:40;;;;;;;1.5;0.9;;;;;;;15.9;87.27344;941.05;;;;
2022/09/11 09:10:12;;;;;;;1.2;0.8;;;;;;;15.95;86.80859;941.0215;;;;
2022/09/11 09:12:38;;;;;;;1.1;1;;;;;;;16.02;85.37598;941.0424;;;;
2022/09/11 09:15:03;;;;;;;1.2;1.1;;;;;;;15.95;85.41016;941.0072;;;;
2022/09/11 09:17:34;;;;;;;1.1;0.9;;;;;;;15.9;85.06445;941.0975;;;;
2022/09/11 09:19:59;;;;;;;1.6;1;;;;;;;15.82;85.86914;941.0442;;;;
2022/09/11 09:22:27;;;;;;;1.1;1;;;;;;;15.81;86.31738;941.1138;;;;
2022/09/11 09:24:53;;;;;;;1.2;1.1;;;;;;;15.86;87.18359;941.1459;;;;
2022/09/11 09:27:18;;;;;;;1.1;1;;;;;;;15.88;87.8457;941.1522;;;;
2022/09/11 09:29:44;;;;;;;1.9;1.2;;;;;;;15.75;87.63574;941.1278;;;;
2022/09/11 09:32:10;;;;;;;1;0.9;;;;;;;15.87;89.01172;941.1651;;;;
2022/09/11 09:34:34;;;;;;;1.9;0.8;;;;;;;15.76;88.27148;941.123;;;;
2022/09/11 09:36:59;;;;;;;2;1.1;;;;;;;15.93;88.43457;941.1028;;;;
2022/09/11 09:39:24;;;;;;;2.7;1.5;;;;;;;16;88.12402;941.0856;;;;
2022/09/11 09:41:50;;;;;;;2.8;1.6;;;;;;;15.99;85.47461;941.0928;;;;
2022/09/11 09:44:17;;;;;;;2.9;1.3;;;;;;;16.04;85.19434;941.1008;;;;
2022/09/11 09:46:45;;;;;;;1.2;1;;;;;;;16.07;83.76563;941.1135;;;;
2022/09/11 09:49:11;;;;;;;1.6;1;;;;;;;16.09;84.59375;941.09;;;;
2022/09/11 09:51:36;;;;;;;1.6;1.2;;;;;;;16.14;83.20313;941.0294;;;;
2022/09/11 09:54:03;;;;;;;1.1;1;;;;;;;16.27;85.18359;941.027;;;;
2022/09/11 09:56:29;;;;;;;1.3;0.8;;;;;;;16.4;85.40332;941.0228;;;;
2022/09/11 09:58:57;;;;;;;2.6;1;;;;;;;16.44;83.66504;940.9793;;;;
2022/09/11 10:01:22;;;;;;;1.1;1;;;;;;;16.69;81.65137;941.037;;;;
2022/09/11 10:03:47;;;;;;;1.1;0.9;;;;;;;17.02;80.85645;940.9852;;;;
2022/09/11 10:06:13;;;;;;;1;0.9;;;;;;;17.21;79.62598;941.0016;;;;
2022/09/11 10:08:38;;;;;;;0.7;0.6;;;;;;;17.17;80.32617;940.998;;;;
2022/09/11 10:11:03;;;;;;;0.9;0.9;;;;;;;17.54;79.30371;941.0022;;;;
2022/09/11 10:13:28;;;;;;;2.1;1;;;;;;;17.76;78.78516;940.9941;;;;
2022/09/11 10:16:00;;;;;;;1;0.8;;;;;;;17.45;77.66309;941.0597;;;;
2022/09/11 10:18:25;;;;;;;1;0.9;;;;;;;17.2;79.54492;941.0669;;;;
2022/09/11 10:20:51;;;;;;;1.2;0.9;;;;;;;16.97;80.87988;941.0491;;;;
2022/09/11 10:23:16;;;;;;;0.7;0.6;;;;;;;16.92;81.0332;940.9531;;;;
2022/09/11 10:25:44;;;;;;;1;0.7;;;;;;;16.89;83.41504;940.9011;;;;
2022/09/11 10:28:08;;;;;;;1.8;0.8;;;;;;;17.04;81.87988;940.9771;;;;
2022/09/11 10:30:33;;;;;;;1.4;0.8;;;;;;;17.22;81.91113;940.9403;;;;
2022/09/11 10:32:59;;;;;;;1.3;0.7;;;;;;;17.39;81.36328;941.0328;;;;
2022/09/11 10:35:26;;;;;;;0.8;0.8;;;;;;;17.35;79.94238;941.0694;;;;
2022/09/11 10:37:50;;;;;;;0.6;0.6;;;;;;;17.3;78.36816;941.058;;;;
2022/09/11 10:40:21;;;;;;;1.5;0.8;;;;;;;17.38;77.79004;940.9822;;;;
2022/09/11 10:42:50;;;;;;;1.3;0.8;;;;;;;17.38;79.89063;940.9659;;;;
2022/09/11 10:45:20;;;;;;;1.1;0.8;;;;;;;17.31;78.60156;941.0031;;;;
2022/09/11 10:47:47;;;;;;;1.3;0.8;;;;;;;17.54;79.44238;941.0642;;;;
2022/09/11 10:50:11;;;;;;;1.7;0.8;;;;;;;17.43;78.87793;941.0558;;;;
2022/09/11 10:52:44;;;;;;;0.6;0.6;;;;;;;17.33;79.48633;941.0511;;;;
2022/09/11 10:55:11;;;;;;;1.5;0.8;;;;;;;17.78;79.74023;941.0293;;;;
2022/09/11 10:57:34;;;;;;;0.9;0.8;;;;;;;18.3;77.51074;941.0338;;;;
2022/09/11 11:00:03;;;;;;;1.1;0.8;;;;;;;18.8;73.45801;940.9915;;;;
2022/09/11 11:02:30;;;;;;;1.5;0.7;;;;;;;19.16;71.45508;940.9822;;;;
2022/09/11 11:04:58;;;;;;;0.8;0.6;;;;;;;19.53;70.69922;941.0045;;;;
2022/09/11 11:07:28;;;;;;;0.9;0.9;;;;;;;19.5;71.8252;940.9833;;;;
2022/09/11 11:11:07;;;;;;;1.4;0.8;;;;;;;19.53;72.09766;941.0109;;;;
2022/09/11 11:13:32;;;;;;;5.5;3.4;;;;;;;19.72;73.06348;940.9703;;;;
2022/09/11 11:16:01;;;;;;;2.4;1.7;;;;;;;19.73;72.12012;940.9475;;;;
2022/09/11 11:18:26;;;;;;;1.3;1.2;;;;;;;19.52;74.26465;940.9563;;;;
2022/09/11 11:20:51;;;;;;;1.1;1;;;;;;;19.49;72.0918;941.0295;;;;
2022/09/11 11:23:18;;;;;;;258.8;137.4;;;;;;;19.21;75.13281;941.0289;;;;
2022/09/11 11:25:43;;;;;;;2.5;2.1;;;;;;;18.53;77.27344;941.0584;;;;
2022/09/11 11:28:10;;;;;;;1.1;1;;;;;;;18.21;75.98438;941.0647;;;;
2022/09/11 11:30:34;;;;;;;1.2;1.1;;;;;;;17.98;77.92969;941.1074;;;;
2022/09/11 11:33:00;;;;;;;1.4;0.9;;;;;;;17.8;78.05078;941.0427;;;;
2022/09/11 11:35:26;;;;;;;1.2;1.1;;;;;;;17.58;77.81348;941.1144;;;;
2022/09/11 11:37:51;;;;;;;2;1;;;;;;;17.52;78.81152;940.975;;;;
2022/09/11 11:40:16;;;;;;;0.9;0.8;;;;;;;18.28;77.33398;941.043;;;;
2022/09/11 11:42:41;;;;;;;1.6;1.2;;;;;;;19.18;76.26758;940.9988;;;;
2022/09/11 11:45:15;;;;;;;1.2;0.7;;;;;;;19.23;71.61816;940.986;;;;
2022/09/11 11:47:42;;;;;;;0.7;0.7;;;;;;;19.84;73.11621;940.9553;;;;
2022/09/11 11:50:07;;;;;;;0.5;0.5;;;;;;;20.18;70.67676;940.9647;;;;
2022/09/11 11:52:32;;;;;;;1.9;0.7;;;;;;;20.22;71.40625;941.0037;;;;
2022/09/11 11:54:57;;;;;;;1.1;0.8;;;;;;;19.13;70.81055;940.9788;;;;
2022/09/11 11:57:22;;;;;;;1.4;0.8;;;;;;;18.56;74.20801;940.9686;;;;
2022/09/11 11:59:47;;;;;;;1;0.8;;;;;;;18.87;76.9248;941.0107;;;;
2022/09/11 12:02:13;;;;;;;0.9;0.6;;;;;;;19.23;72.79492;940.9514;;;;
2022/09/11 12:04:42;;;;;;;0.8;0.7;;;;;;;19.08;76.77637;940.9417;;;;
2022/09/11 12:07:07;;;;;;;1;0.8;;;;;;;19.42;76.19336;940.9517;;;;
2022/09/11 12:09:32;;;;;;;0.7;0.7;;;;;;;20.21;72.84082;940.892;;;;
2022/09/11 12:11:59;;;;;;;0.8;0.6;;;;;;;20.9;67.41211;940.8795;;;;
2022/09/11 12:14:22;;;;;;;1;0.9;;;;;;;20.4;68.48047;940.8684;;;;
2022/09/11 12:16:48;;;;;;;1.5;0.8;;;;;;;20.26;69.33496;940.9308;;;;
2022/09/11 12:19:15;;;;;;;1;0.8;;;;;;;20.21;68.90625;940.9034;;;;
2022/09/11 12:21:40;;;;;;;0.8;0.8;;;;;;;20.1;68.08301;940.8761;;;;
2022/09/11 12:24:06;;;;;;;1;0.6;;;;;;;19.91;67.41211;940.8567;;;;
2022/09/11 12:26:31;;;;;;;0.6;0.6;;;;;;;19.97;67.62012;940.8828;;;;
2022/09/11 12:28:56;;;;;;;0.8;0.8;;;;;;;21.4;63.25;940.8678;;;;
2022/09/11 12:31:21;;;;;;;0.7;0.7;;;;;;;21.72;58.83398;940.855;;;;
2022/09/11 12:33:46;;;;;;;0.6;0.6;;;;;;;21.34;62.52832;940.8223;;;;
2022/09/11 12:36:17;;;;;;;0.8;0.6;;;;;;;21.27;64.61133;940.8206;;;;
2022/09/11 12:38:44;;;;;;;0.6;0.5;;;;;;;23.33;59.87012;940.7836;;;;
2022/09/11 12:41:09;;;;;;;0.6;0.5;;;;;;;26.06;49.50977;940.7277;;;;
2022/09/11 12:43:34;;;;;;;0.5;0.5;;;;;;;27.94;45.44238;940.7008;;;;
2022/09/11 12:45:59;;;;;;;0.5;0.5;;;;;;;28.84;41.93945;940.6678;;;;
2022/09/11 12:48:24;;;;;;;1.5;0.4;;;;;;;28.37;41.59766;940.7174;;;;
2022/09/11 12:50:49;;;;;;;0.3;0.3;;;;;;;29.62;38.9707;940.7018;;;;
2022/09/11 12:53:15;;;;;;;0.5;0.3;;;;;;;29.02;39.13379;940.666;;;;
2022/09/11 12:55:42;;;;;;;0.4;0.3;;;;;;;29.35;38.69824;940.6033;;;;
2022/09/11 12:58:05;;;;;;;0.4;0.3;;;;;;;28.26;42.37207;940.6464;;;;
2022/09/11 13:00:34;;;;;;;0.3;0.3;;;;;;;26.46;43.375;940.5902;;;;
2022/09/11 13:02:58;;;;;;;0.4;0.4;;;;;;;24.79;47.07031;940.5903;;;;
2022/09/11 13:05:23;;;;;;;0.5;0.4;;;;;;;23.41;51.82715;940.5254;;;;
2022/09/11 13:07:50;;;;;;;0.6;0.5;;;;;;;24.16;50.6543;940.5424;;;;
2022/09/11 13:10:15;;;;;;;0.3;0.3;;;;;;;23.95;49.33594;940.4681;;;;
2022/09/11 13:12:39;;;;;;;0.8;0.3;;;;;;;24.75;49.76563;940.4333;;;;
2022/09/11 13:15:05;;;;;;;0.4;0.2;;;;;;;24.96;46.58008;940.4042;;;;
2022/09/11 13:17:31;;;;;;;0.3;0.3;;;;;;;24.48;48.61621;940.3367;;;;
2022/09/11 13:19:56;;;;;;;0.9;0.3;;;;;;;24.82;49.30176;940.3513;;;;
2022/09/11 13:22:22;;;;;;;1.6;1.5;;;;;;;26.51;48.51758;940.3397;;;;
2022/09/11 13:24:47;;;;;;;0.5;0.5;;;;;;;27.55;44.45215;940.3387;;;;
2022/09/11 13:27:12;;;;;;;0.5;0.3;;;;;;;28.32;41.69922;940.3362;;;;
2022/09/11 13:29:38;;;;;;;0.4;0.4;;;;;;;27.67;44.18066;940.3296;;;;
2022/09/11 13:32:03;;;;;;;0.5;0.3;;;;;;;27.94;41.3916;940.3382;;;;
2022/09/11 13:34:28;;;;;;;0.5;0.5;;;;;;;27.74;40.51758;940.3016;;;;
2022/09/11 13:36:53;;;;;;;0.5;0.4;;;;;;;28.4;38.56836;940.267;;;;
2022/09/11 13:39:19;;;;;;;0.3;0.3;;;;;;;28.77;36.53027;940.2299;;;;
2022/09/11 13:41:47;;;;;;;0.4;0.4;;;;;;;28.09;39.58691;940.2688;;;;
2022/09/11 13:44:12;;;;;;;0.4;0.4;;;;;;;25.64;45.8125;940.2078;;;;
2022/09/11 13:46:40;;;;;;;0.3;0.3;;;;;;;24.5;49.8916;940.2584;;;;
2022/09/11 13:49:06;;;;;;;0.4;0.4;;;;;;;23.96;49.04199;940.2651;;;;
2022/09/11 13:51:31;;;;;;;0.4;0.4;;;;;;;23.58;51.4707;940.1897;;;;
2022/09/11 13:53:58;;;;;;;0.6;0.6;;;;;;;23.32;53.41504;940.2615;;;;
2022/09/11 13:56:23;;;;;;;0.6;0.5;;;;;;;23;54.78613;940.2805;;;;
2022/09/11 13:58:48;;;;;;;0.4;0.4;;;;;;;22.99;53.69336;940.2385;;;;
2022/09/11 14:01:18;;;;;;;0.6;0.5;;;;;;;23;54.72852;940.2267;;;;
2022/09/11 14:03:41;;;;;;;0.5;0.5;;;;;;;22.81;56.27734;940.1941;;;;
2022/09/11 14:10:19;;;;;;;0.6;0.6;;;;;;;22.5;55.21875;940.253;;;;
2022/09/11 14:12:44;;;;;;;2.1;0.6;;;;;;;21.81;58.17871;940.2784;;;;
2022/09/11 14:15:14;;;;;;;0.5;0.5;;;;;;;21.61;59.04102;940.2665;;;;
2022/09/11 14:17:55;;;;;;;0.9;0.7;;;;;;;21.36;60.38965;940.3148;;;;
2022/09/11 14:20:24;;;;;;;0.8;0.6;;;;;;;20.63;64.54297;940.3256;;;;
2022/09/11 14:26:18;;;;;;;0.8;0.8;;;;;;;19.13;73.10449;940.4581;;;;
2022/09/11 14:28:44;;;;;;;0.5;0.5;;;;;;;19.31;72.26074;940.4934;;;;
2022/09/11 14:31:12;;;;;;;0.8;0.8;;;;;;;19.41;73.1875;940.467;;;;
2022/09/11 14:33:37;;;;;;;1.2;0.9;;;;;;;19.45;71.75977;940.4972;;;;
2022/09/11 14:36:02;;;;;;;0.9;0.9;;;;;;;19.21;70.73047;940.5187;;;;
2022/09/11 14:38:27;;;;;;;1;0.9;;;;;;;19.3;70.4873;940.5898;;;;
2022/09/11 14:40:56;;;;;;;1.1;0.9;;;;;;;19;71.13965;940.5717;;;;
2022/09/11 14:43:21;;;;;;;0.8;0.8;;;;;;;18.8;72.07324;940.618;;;;
2022/09/11 14:45:53;;;;;;;1.1;1;;;;;;;18.67;73.05078;940.6277;;;;
2022/09/11 14:48:20;;;;;;;0.8;0.8;;;;;;;18.57;73.11621;940.5948;;;;
2022/09/11 14:50:45;;;;;;;1;0.9;;;;;;;18.54;73.95898;940.5438;;;;
2022/09/11 14:53:13;;;;;;;1.2;1.2;;;;;;;18.35;74.44043;940.5314;;;;
2022/09/11 14:55:37;;;;;;;1.2;0.9;;;;;;;18.36;72.84766;940.5345;;;;
2022/09/11 14:58:02;;;;;;;1;0.9;;;;;;;18.34;73.27441;940.5381;;;;
2022/09/11 15:00:29;;;;;;;1;0.9;;;;;;;18.49;72.77832;940.5381;;;;
2022/09/11 15:02:54;;;;;;;0.9;0.9;;;;;;;18.46;72.15625;940.5089;;;;
2022/09/11 15:06:17;;;;;;;0.8;0.8;;;;;;;18.42;72.46484;940.4797;;;;
2022/09/11 15:08:47;;;;;;;0.9;0.9;;;;;;;18;75.48438;940.3931;;;;
2022/09/11 15:11:12;;;;;;;1;1;;;;;;;18.31;74.07422;940.387;;;;
2022/09/11 15:13:43;;;;;;;2.3;1;;;;;;;18.28;74.55566;940.4222;;;;
2022/09/11 15:16:11;;;;;;;0.8;0.8;;;;;;;18.13;75.37793;940.4178;;;;
2022/09/11 15:18:41;;;;;;;1;0.9;;;;;;;18.05;75.71387;940.3828;;;;
2022/09/11 15:21:06;;;;;;;1.5;1.1;;;;;;;17.85;75.75;940.4059;;;;
2022/09/11 15:23:33;;;;;;;0.9;0.9;;;;;;;17.56;75.38477;940.4133;;;;
2022/09/11 15:26:00;;;;;;;2.1;1.2;;;;;;;17.32;74.97363;940.4009;;;;
2022/09/11 15:28:23;;;;;;;1.5;1;;;;;;;17.28;76.6709;940.4989;;;;
2022/09/11 15:33:33;;;;;;;1.6;1;;;;;;;17.28;77.09961;940.4755;;;;
2022/09/11 15:36:00;;;;;;;1;0.9;;;;;;;17.18;79.41211;940.519;;;;
2022/09/11 15:38:26;;;;;;;1;0.9;;;;;;;17.35;78.6543;940.4666;;;;
2022/09/11 15:40:55;;;;;;;1.9;1.3;;;;;;;17.39;77.87207;940.4185;;;;
2022/09/11 15:43:19;;;;;;;1.8;1.6;;;;;;;17.48;78.19141;940.4867;;;;
2022/09/11 15:45:45;;;;;;;1.3;1.1;;;;;;;17.56;77.46387;940.4269;;;;
2022/09/11 15:51:31;;;;;;;1.4;1.3;;;;;;;17.69;77.32324;940.4442;;;;
2022/09/11 15:53:59;;;;;;;1.7;1.6;;;;;;;17.77;77.27832;940.4294;;;;
2022/09/11 15:56:25;;;;;;;2.2;1.7;;;;;;;17.74;78.42285;940.4467;;;;
2022/09/11 15:58:53;;;;;;;2.3;2.1;;;;;;;17.81;78.81836;940.4521;;;;
2022/09/11 16:01:18;;;;;;;1.8;1.7;;;;;;;17.81;79.25977;940.4183;;;;
2022/09/11 16:03:43;;;;;;;1.9;1.5;;;;;;;17.85;79.11523;940.3527;;;;
2022/09/11 16:06:09;;;;;;;2.8;1.8;;;;;;;17.92;78.10645;940.3508;;;;
2022/09/11 16:08:34;;;;;;;2.2;1.7;;;;;;;17.92;78.05957;940.288;;;;
2022/09/11 16:11:00;;;;;;;2;1.8;;;;;;;17.85;78.95215;940.3987;;;;
2022/09/11 16:13:30;;;;;;;2.1;1.6;;;;;;;17.71;79.99414;940.4222;;;;
2022/09/11 16:15:56;;;;;;;2.1;1.7;;;;;;;17.72;80.08887;940.4084;;;;
2022/09/11 16:18:20;;;;;;;2.9;1.8;;;;;;;17.76;79.78418;940.353;;;;
2022/09/11 16:20:50;;;;;;;1.8;1.7;;;;;;;17.68;80.0957;940.3574;;;;
2022/09/11 16:23:20;;;;;;;3.1;2.1;;;;;;;17.46;81.40039;940.3993;;;;
2022/09/11 16:25:44;;;;;;;3.2;2.4;;;;;;;17.43;81.53418;940.3635;;;;
2022/09/11 16:28:11;;;;;;;3.1;2;;;;;;;17.44;82.90332;940.3714;;;;